sensor_id;sensor_type;location;lat;lon;timestamp;pressure;altitude;pressure_sealevel;temperature;humidity
14689;BME280;7432;48.728;9.154;2023-01-23T00:02:24;97654.56;;;-0.11;99.53
14689;BME280;7432;48.728;9.154;2023-01-23T00:04:51;97662.22;;;-0.12;100.00
14689;BME280;7432;48.728;9.154;2023-01-23T00:07:17;97666.41;;;-0.11;100.00
14689;BME280;7432;48.728;9.154;2023-01-23T00:09:44;97671.19;;;-0.05;99.97
14689;BME280;7432;48.728;9.154;2023-01-23T00:12:10;97650.56;;;-0.16;99.72
14689;BME280;7432;48.728;9.154;2023-01-23T00:14:38;97665.16;;;-0.03;99.28
14689;BME280;7432;48.728;9.154;2023-01-23T00:17:04;97658.94;;;-0.14;98.98
14689;BME280;7432;48.728;9.154;2023-01-23T00:19:30;97661.59;;;-0.17;99.81
14689;BME280;7432;48.728;9.154;2023-01-23T00:21:58;97656.72;;;-0.22;99.53
14689;BME280;7432;48.728;9.154;2023-01-23T00:24:25;97662.94;;;-0.29;99.74
14689;BME280;7432;48.728;9.154;2023-01-23T00:26:51;97656.31;;;-0.31;99.69
14689;BME280;7432;48.728;9.154;2023-01-23T00:29:18;97668.63;;;-0.24;99.46
14689;BME280;7432;48.728;9.154;2023-01-23T00:31:46;97659.91;;;-0.17;99.39
14689;BME280;7432;48.728;9.154;2023-01-23T00:34:13;97665.50;;;-0.10;99.84
14689;BME280;7432;48.728;9.154;2023-01-23T00:36:41;97645.03;;;-0.24;99.51
14689;BME280;7432;48.728;9.154;2023-01-23T00:39:13;97664.63;;;-0.09;99.51
14689;BME280;7432;48.728;9.154;2023-01-23T00:41:40;97659.97;;;0.00;98.46
14689;BME280;7432;48.728;9.154;2023-01-23T00:44:07;97667.53;;;0.02;98.95
14689;BME280;7432;48.728;9.154;2023-01-23T00:46:33;97658.88;;;0.06;98.74
14689;BME280;7432;48.728;9.154;2023-01-23T00:49:01;97663.34;;;0.01;98.82
14689;BME280;7432;48.728;9.154;2023-01-23T00:51:27;97664.84;;;0.05;98.95
14689;BME280;7432;48.728;9.154;2023-01-23T00:53:54;97646.69;;;-0.05;98.83
14689;BME280;7432;48.728;9.154;2023-01-23T00:56:20;97659.44;;;-0.06;99.08
14689;BME280;7432;48.728;9.154;2023-01-23T00:58:46;97667.06;;;-0.08;99.55
14689;BME280;7432;48.728;9.154;2023-01-23T01:01:14;97660.03;;;-0.20;99.58
14689;BME280;7432;48.728;9.154;2023-01-23T01:03:41;97660.78;;;-0.18;99.32
14689;BME280;7432;48.728;9.154;2023-01-23T01:06:10;97661.03;;;-0.24;99.70
14689;BME280;7432;48.728;9.154;2023-01-23T01:08:36;97670.44;;;-0.27;99.16
14689;BME280;7432;48.728;9.154;2023-01-23T01:11:03;97667.00;;;-0.25;100.00
14689;BME280;7432;48.728;9.154;2023-01-23T01:13:30;97678.00;;;-0.26;99.79
14689;BME280;7432;48.728;9.154;2023-01-23T01:15:56;97678.44;;;-0.36;100.00
14689;BME280;7432;48.728;9.154;2023-01-23T01:18:26;97682.97;;;-0.24;99.64
14689;BME280;7432;48.728;9.154;2023-01-23T01:20:52;97658.03;;;-0.52;99.44
14689;BME280;7432;48.728;9.154;2023-01-23T01:23:21;97690.53;;;-0.23;99.52
14689;BME280;7432;48.728;9.154;2023-01-23T01:25:47;97679.78;;;-0.28;98.91
14689;BME280;7432;48.728;9.154;2023-01-23T01:28:13;97694.50;;;-0.17;99.47
14689;BME280;7432;48.728;9.154;2023-01-23T01:30:40;97696.09;;;-0.15;99.18
14689;BME280;7432;48.728;9.154;2023-01-23T01:33:06;97684.47;;;-0.39;98.60
14689;BME280;7432;48.728;9.154;2023-01-23T01:35:33;97699.63;;;-0.19;98.61
14689;BME280;7432;48.728;9.154;2023-01-23T01:38:00;97701.47;;;-0.22;98.65
14689;BME280;7432;48.728;9.154;2023-01-23T01:40:32;97692.94;;;-0.20;98.85
14689;BME280;7432;48.728;9.154;2023-01-23T01:43:02;97699.63;;;-0.19;98.21
14689;BME280;7432;48.728;9.154;2023-01-23T01:45:59;97701.41;;;-0.21;98.17
14689;BME280;7432;48.728;9.154;2023-01-23T01:48:31;97694.50;;;-0.17;98.48
14689;BME280;7432;48.728;9.154;2023-01-23T01:50:59;97697.66;;;-0.12;98.07
14689;BME280;7432;48.728;9.154;2023-01-23T01:53:29;97708.47;;;-0.09;97.54
14689;BME280;7432;48.728;9.154;2023-01-23T01:55:59;97710.66;;;-0.20;98.29
14689;BME280;7432;48.728;9.154;2023-01-23T01:58:26;97710.53;;;-0.17;98.47
14689;BME280;7432;48.728;9.154;2023-01-23T02:00:53;97708.28;;;-0.24;98.72
14689;BME280;7432;48.728;9.154;2023-01-23T02:03:22;97706.53;;;-0.22;99.39
14689;BME280;7432;48.728;9.154;2023-01-23T02:05:49;97709.13;;;-0.24;98.55
14689;BME280;7432;48.728;9.154;2023-01-23T02:08:20;97716.69;;;-0.24;99.02
14689;BME280;7432;48.728;9.154;2023-01-23T02:10:48;97716.31;;;-0.15;98.66
14689;BME280;7432;48.728;9.154;2023-01-23T02:13:23;97718.38;;;-0.23;99.02
14689;BME280;7432;48.728;9.154;2023-01-23T02:15:55;97720.69;;;-0.18;99.09
14689;BME280;7432;48.728;9.154;2023-01-23T02:18:23;97705.88;;;-0.27;99.36
14689;BME280;7432;48.728;9.154;2023-01-23T02:20:51;97710.56;;;-0.18;98.62
14689;BME280;7432;48.728;9.154;2023-01-23T02:23:25;97711.13;;;-0.12;98.77
14689;BME280;7432;48.728;9.154;2023-01-23T02:25:58;97721.25;;;-0.12;98.40
14689;BME280;7432;48.728;9.154;2023-01-23T02:28:35;97717.81;;;-0.11;99.09
14689;BME280;7432;48.728;9.154;2023-01-23T02:31:02;97708.03;;;-0.18;98.88
14689;BME280;7432;48.728;9.154;2023-01-23T02:33:47;97704.63;;;-0.17;98.30
14689;BME280;7432;48.728;9.154;2023-01-23T02:36:16;97699.94;;;-0.26;98.30
14689;BME280;7432;48.728;9.154;2023-01-23T02:38:48;97691.78;;;-0.13;98.24
14689;BME280;7432;48.728;9.154;2023-01-23T02:41:23;97694.88;;;-0.26;98.75
14689;BME280;7432;48.728;9.154;2023-01-23T02:43:52;97701.59;;;-0.25;98.21
14689;BME280;7432;48.728;9.154;2023-01-23T02:46:19;97702.28;;;-0.22;98.27
14689;BME280;7432;48.728;9.154;2023-01-23T02:48:46;97690.56;;;-0.24;99.03
14689;BME280;7432;48.728;9.154;2023-01-23T02:51:13;97699.75;;;-0.22;98.50
14689;BME280;7432;48.728;9.154;2023-01-23T02:53:41;97699.56;;;-0.17;98.03
14689;BME280;7432;48.728;9.154;2023-01-23T02:56:07;97699.00;;;-0.24;98.58
14689;BME280;7432;48.728;9.154;2023-01-23T02:58:35;97668.75;;;-0.27;98.84
14689;BME280;7432;48.728;9.154;2023-01-23T03:01:19;97708.41;;;-0.07;98.38
14689;BME280;7432;48.728;9.154;2023-01-23T03:03:46;97715.50;;;0.05;97.80
14689;BME280;7432;48.728;9.154;2023-01-23T03:06:15;97705.00;;;-0.06;97.49
14689;BME280;7432;48.728;9.154;2023-01-23T03:08:42;97705.03;;;-0.08;97.90
14689;BME280;7432;48.728;9.154;2023-01-23T03:11:14;97695.38;;;-0.18;98.48
14689;BME280;7432;48.728;9.154;2023-01-23T03:13:42;97717.16;;;-0.14;98.64
14689;BME280;7432;48.728;9.154;2023-01-23T03:16:09;97709.94;;;-0.23;98.36
14689;BME280;7432;48.728;9.154;2023-01-23T03:18:35;97712.59;;;-0.26;99.25
14689;BME280;7432;48.728;9.154;2023-01-23T03:21:02;97706.34;;;-0.18;99.19
14689;BME280;7432;48.728;9.154;2023-01-23T03:23:29;97715.56;;;-0.17;99.05
14689;BME280;7432;48.728;9.154;2023-01-23T03:25:55;97713.78;;;-0.15;99.05
14689;BME280;7432;48.728;9.154;2023-01-23T03:28:23;97716.00;;;-0.27;99.14
14689;BME280;7432;48.728;9.154;2023-01-23T03:31:05;97711.25;;;-0.35;99.51
14689;BME280;7432;48.728;9.154;2023-01-23T03:33:31;97705.00;;;-0.26;99.00
14689;BME280;7432;48.728;9.154;2023-01-23T03:35:58;97704.69;;;-0.19;98.90
14689;BME280;7432;48.728;9.154;2023-01-23T03:38:25;97698.00;;;-0.20;99.55
14689;BME280;7432;48.728;9.154;2023-01-23T03:40:51;97701.97;;;-0.14;98.42
14689;BME280;7432;48.728;9.154;2023-01-23T03:43:35;97694.88;;;-0.06;99.25
14689;BME280;7432;48.728;9.154;2023-01-23T03:46:02;97696.38;;;-0.02;98.42
14689;BME280;7432;48.728;9.154;2023-01-23T03:48:30;97697.91;;;0.02;98.28
14689;BME280;7432;48.728;9.154;2023-01-23T03:50:56;97692.75;;;0.04;97.83
14689;BME280;7432;48.728;9.154;2023-01-23T03:53:22;97700.44;;;0.02;97.76
14689;BME280;7432;48.728;9.154;2023-01-23T03:55:49;97678.25;;;-0.12;97.23
14689;BME280;7432;48.728;9.154;2023-01-23T03:58:15;97700.22;;;0.07;98.99
14689;BME280;7432;48.728;9.154;2023-01-23T04:00:42;97701.75;;;0.11;98.56
14689;BME280;7432;48.728;9.154;2023-01-23T04:03:08;97707.91;;;0.05;98.31
14689;BME280;7432;48.728;9.154;2023-01-23T04:05:36;97708.78;;;0.04;98.21
14689;BME280;7432;48.728;9.154;2023-01-23T04:08:02;97700.44;;;0.02;98.70
14689;BME280;7432;48.728;9.154;2023-01-23T04:10:29;97704.47;;;0.06;98.78
14689;BME280;7432;48.728;9.154;2023-01-23T04:12:56;97707.31;;;-0.02;97.90
14689;BME280;7432;48.728;9.154;2023-01-23T04:15:22;97720.69;;;0.02;98.18
14689;BME280;7432;48.728;9.154;2023-01-23T04:17:48;97717.66;;;-0.06;97.82
14689;BME280;7432;48.728;9.154;2023-01-23T04:20:15;97723.59;;;-0.07;98.31
14689;BME280;7432;48.728;9.154;2023-01-23T04:22:43;97726.25;;;-0.10;98.23
14689;BME280;7432;48.728;9.154;2023-01-23T04:25:09;97724.88;;;-0.17;99.19
14689;BME280;7432;48.728;9.154;2023-01-23T04:27:36;97735.91;;;0.00;98.73
14689;BME280;7432;48.728;9.154;2023-01-23T04:30:02;97733.25;;;0.04;98.02
14689;BME280;7432;48.728;9.154;2023-01-23T04:32:29;97740.22;;;-0.02;97.65
14689;BME280;7432;48.728;9.154;2023-01-23T04:34:55;97737.69;;;-0.02;98.22
14689;BME280;7432;48.728;9.154;2023-01-23T04:37:21;97738.06;;;-0.11;98.36
14689;BME280;7432;48.728;9.154;2023-01-23T04:39:49;97735.50;;;-0.09;98.63
14689;BME280;7432;48.728;9.154;2023-01-23T04:42:16;97742.72;;;0.00;97.72
14689;BME280;7432;48.728;9.154;2023-01-23T04:44:42;97736.00;;;-0.21;98.62
14689;BME280;7432;48.728;9.154;2023-01-23T04:47:08;97738.78;;;-0.27;98.54
14689;BME280;7432;48.728;9.154;2023-01-23T04:49:35;97735.81;;;-0.17;98.79
14689;BME280;7432;48.728;9.154;2023-01-23T04:52:01;97746.38;;;-0.07;98.25
14689;BME280;7432;48.728;9.154;2023-01-23T04:54:27;97743.97;;;-0.10;98.01
14689;BME280;7432;48.728;9.154;2023-01-23T04:56:55;97737.44;;;-0.16;98.34
14689;BME280;7432;48.728;9.154;2023-01-23T04:59:21;97753.34;;;-0.12;98.02
14689;BME280;7432;48.728;9.154;2023-01-23T05:01:48;97752.59;;;-0.14;98.04
14689;BME280;7432;48.728;9.154;2023-01-23T05:04:14;97754.34;;;-0.16;98.50
14689;BME280;7432;48.728;9.154;2023-01-23T05:06:40;97755.28;;;-0.19;98.15
14689;BME280;7432;48.728;9.154;2023-01-23T05:09:07;97751.56;;;-0.10;98.68
14689;BME280;7432;48.728;9.154;2023-01-23T05:11:33;97756.63;;;-0.10;98.31
14689;BME280;7432;48.728;9.154;2023-01-23T05:14:01;97748.69;;;-0.03;98.31
14689;BME280;7432;48.728;9.154;2023-01-23T05:16:27;97740.47;;;-0.08;98.07
14689;BME280;7432;48.728;9.154;2023-01-23T05:18:54;97758.78;;;-0.21;98.27
14689;BME280;7432;48.728;9.154;2023-01-23T05:21:20;97752.50;;;-0.33;99.51
14689;BME280;7432;48.728;9.154;2023-01-23T05:23:47;97753.31;;;-0.32;99.52
14689;BME280;7432;48.728;9.154;2023-01-23T05:26:13;97751.19;;;-0.21;99.14
14689;BME280;7432;48.728;9.154;2023-01-23T05:28:39;97757.03;;;-0.19;99.53
14689;BME280;7432;48.728;9.154;2023-01-23T05:31:07;97752.59;;;-0.14;99.46
14689;BME280;7432;48.728;9.154;2023-01-23T05:33:33;97749.28;;;-0.16;99.11
14689;BME280;7432;48.728;9.154;2023-01-23T05:36:00;97735.13;;;-0.20;99.04
14689;BME280;7432;48.728;9.154;2023-01-23T05:38:27;97753.84;;;-0.04;98.46
14689;BME280;7432;48.728;9.154;2023-01-23T05:40:53;97754.53;;;-0.01;98.91
14689;BME280;7432;48.728;9.154;2023-01-23T05:43:20;97752.69;;;0.03;98.52
14689;BME280;7432;48.728;9.154;2023-01-23T05:45:46;97753.72;;;-0.01;98.68
14689;BME280;7432;48.728;9.154;2023-01-23T05:48:14;97718.38;;;-0.23;98.15
14689;BME280;7432;48.728;9.154;2023-01-23T05:50:40;97751.94;;;0.01;98.26
14689;BME280;7432;48.728;9.154;2023-01-23T05:53:06;97752.84;;;0.00;97.88
14689;BME280;7432;48.728;9.154;2023-01-23T05:55:33;97727.41;;;-0.37;99.53
14689;BME280;7432;48.728;9.154;2023-01-23T05:57:59;97751.63;;;-0.12;98.83
14689;BME280;7432;48.728;9.154;2023-01-23T06:00:26;97763.78;;;-0.20;99.26
14689;BME280;7432;48.728;9.154;2023-01-23T06:02:52;97769.22;;;-0.09;99.29
14689;BME280;7432;48.728;9.154;2023-01-23T06:05:20;97761.63;;;-0.09;98.87
14689;BME280;7432;48.728;9.154;2023-01-23T06:07:47;97766.81;;;-0.12;98.54
14689;BME280;7432;48.728;9.154;2023-01-23T06:10:14;97761.19;;;-0.18;99.64
14689;BME280;7432;48.728;9.154;2023-01-23T06:12:40;97761.94;;;-0.16;99.14
14689;BME280;7432;48.728;9.154;2023-01-23T06:15:07;97770.84;;;-0.08;99.31
14689;BME280;7432;48.728;9.154;2023-01-23T06:17:34;97748.84;;;-0.26;98.77
14689;BME280;7432;48.728;9.154;2023-01-23T06:20:00;97762.59;;;-0.11;99.51
14689;BME280;7432;48.728;9.154;2023-01-23T06:22:28;97771.25;;;-0.17;99.71
14689;BME280;7432;48.728;9.154;2023-01-23T06:24:54;97773.72;;;-0.15;99.57
14689;BME280;7432;48.728;9.154;2023-01-23T06:27:20;97775.16;;;-0.10;99.63
14689;BME280;7432;48.728;9.154;2023-01-23T06:29:47;97775.91;;;-0.08;99.24
14689;BME280;7432;48.728;9.154;2023-01-23T06:32:13;97781.56;;;-0.01;99.10
14689;BME280;7432;48.728;9.154;2023-01-23T06:34:39;97781.59;;;-0.03;98.74
14689;BME280;7432;48.728;9.154;2023-01-23T06:37:07;97789.19;;;-0.03;97.89
14689;BME280;7432;48.728;9.154;2023-01-23T06:39:34;97793.75;;;-0.11;98.47
14689;BME280;7432;48.728;9.154;2023-01-23T06:42:01;97798.28;;;-0.17;98.80
14689;BME280;7432;48.728;9.154;2023-01-23T06:44:30;97809.97;;;-0.15;98.84
14689;BME280;7432;48.728;9.154;2023-01-23T06:46:56;97804.44;;;-0.24;99.51
14689;BME280;7432;48.728;9.154;2023-01-23T06:49:22;97812.94;;;-0.25;99.10
14689;BME280;7432;48.728;9.154;2023-01-23T06:51:49;97809.50;;;-0.24;99.05
14689;BME280;7432;48.728;9.154;2023-01-23T06:54:15;97819.50;;;-0.21;98.79
14689;BME280;7432;48.728;9.154;2023-01-23T06:56:43;97832.78;;;-0.16;98.30
14689;BME280;7432;48.728;9.154;2023-01-23T06:59:09;97828.16;;;-0.27;99.39
14689;BME280;7432;48.728;9.154;2023-01-23T07:01:36;97836.38;;;-0.22;99.78
14689;BME280;7432;48.728;9.154;2023-01-23T07:04:02;97839.13;;;-0.26;98.99
14689;BME280;7432;48.728;9.154;2023-01-23T07:06:29;97829.75;;;-0.24;99.56
14689;BME280;7432;48.728;9.154;2023-01-23T07:08:56;97841.06;;;-0.11;99.20
14689;BME280;7432;48.728;9.154;2023-01-23T07:11:22;97831.81;;;-0.12;98.98
14689;BME280;7432;48.728;9.154;2023-01-23T07:13:50;97840.38;;;-0.16;99.44
14689;BME280;7432;48.728;9.154;2023-01-23T07:16:17;97842.03;;;-0.15;98.45
14689;BME280;7432;48.728;9.154;2023-01-23T07:18:44;97846.78;;;-0.08;98.58
14689;BME280;7432;48.728;9.154;2023-01-23T07:21:11;97845.41;;;-0.15;98.20
14689;BME280;7432;48.728;9.154;2023-01-23T07:23:37;97850.16;;;-0.07;97.78
14689;BME280;7432;48.728;9.154;2023-01-23T07:26:05;97859.91;;;0.02;97.75
14689;BME280;7432;48.728;9.154;2023-01-23T07:28:33;97851.81;;;-0.06;97.78
14689;BME280;7432;48.728;9.154;2023-01-23T07:31:01;97853.28;;;-0.01;98.65
14689;BME280;7432;48.728;9.154;2023-01-23T07:33:28;97854.84;;;0.02;97.61
14689;BME280;7432;48.728;9.154;2023-01-23T07:35:54;97855.59;;;0.04;97.97
14689;BME280;7432;48.728;9.154;2023-01-23T07:38:21;97857.22;;;-0.15;98.77
14689;BME280;7432;48.728;9.154;2023-01-23T07:40:48;97850.16;;;-0.07;99.16
14689;BME280;7432;48.728;9.154;2023-01-23T07:43:14;97848.69;;;-0.13;99.05
14689;BME280;7432;48.728;9.154;2023-01-23T07:45:41;97848.81;;;-0.16;98.48
14689;BME280;7432;48.728;9.154;2023-01-23T07:48:08;97847.00;;;-0.12;98.56
14689;BME280;7432;48.728;9.154;2023-01-23T07:50:35;97855.09;;;-0.04;99.16
14689;BME280;7432;48.728;9.154;2023-01-23T07:53:02;97848.38;;;-0.05;98.79
14689;BME280;7432;48.728;9.154;2023-01-23T07:55:28;97854.38;;;-0.08;98.72
14689;BME280;7432;48.728;9.154;2023-01-23T07:57:55;97849.31;;;-0.08;98.26
14689;BME280;7432;48.728;9.154;2023-01-23T08:00:22;97853.16;;;0.03;98.57
14689;BME280;7432;48.728;9.154;2023-01-23T08:02:49;97833.66;;;0.05;97.40
14689;BME280;7432;48.728;9.154;2023-01-23T08:05:17;97849.97;;;0.18;97.19
14689;BME280;7432;48.728;9.154;2023-01-23T08:07:43;97849.47;;;0.30;97.69
14689;BME280;7432;48.728;9.154;2023-01-23T08:10:10;97844.59;;;0.25;97.08
14689;BME280;7432;48.728;9.154;2023-01-23T08:12:37;97842.31;;;0.39;96.61
14689;BME280;7432;48.728;9.154;2023-01-23T08:15:04;97843.88;;;0.42;96.27
14689;BME280;7432;48.728;9.154;2023-01-23T08:17:30;97842.56;;;0.53;96.10
14689;BME280;7432;48.728;9.154;2023-01-23T08:19:57;97847.13;;;0.45;95.57
14689;BME280;7432;48.728;9.154;2023-01-23T08:22:24;97839.03;;;0.37;96.16
14689;BME280;7432;48.728;9.154;2023-01-23T08:24:51;97841.69;;;0.34;95.82
14689;BME280;7432;48.728;9.154;2023-01-23T08:27:17;97846.16;;;0.28;95.97
14689;BME280;7432;48.728;9.154;2023-01-23T08:29:44;97846.13;;;0.29;97.25
14689;BME280;7432;48.728;9.154;2023-01-23T08:32:10;97854.22;;;0.17;96.77
14689;BME280;7432;48.728;9.154;2023-01-23T08:34:36;97849.47;;;0.10;97.57
14689;BME280;7432;48.728;9.154;2023-01-23T08:37:03;97843.09;;;0.21;97.04
14689;BME280;7432;48.728;9.154;2023-01-23T08:39:30;97839.53;;;0.25;96.69
14689;BME280;7432;48.728;9.154;2023-01-23T08:41:57;97847.44;;;0.18;97.72
14689;BME280;7432;48.728;9.154;2023-01-23T08:44:23;97843.63;;;0.28;96.82
14689;BME280;7432;48.728;9.154;2023-01-23T08:46:49;97845.63;;;0.21;96.69
14689;BME280;7432;48.728;9.154;2023-01-23T08:49:16;97852.19;;;0.05;97.28
14689;BME280;7432;48.728;9.154;2023-01-23T08:51:44;97845.28;;;0.29;96.92
14689;BME280;7432;48.728;9.154;2023-01-23T08:54:10;97843.00;;;0.43;95.63
14689;BME280;7432;48.728;9.154;2023-01-23T08:56:38;97843.50;;;0.31;95.28
14689;BME280;7432;48.728;9.154;2023-01-23T08:59:05;97850.88;;;0.37;95.81
14689;BME280;7432;48.728;9.154;2023-01-23T09:01:31;97855.78;;;0.20;95.42
14689;BME280;7432;48.728;9.154;2023-01-23T09:03:58;97855.63;;;0.24;95.69
14689;BME280;7432;48.728;9.154;2023-01-23T09:06:24;97856.50;;;0.43;95.04
14689;BME280;7432;48.728;9.154;2023-01-23T09:08:51;97850.19;;;0.52;94.06
14689;BME280;7432;48.728;9.154;2023-01-23T09:11:17;97847.91;;;0.66;93.01
14689;BME280;7432;48.728;9.154;2023-01-23T09:13:45;97852.06;;;0.87;92.35
14689;BME280;7432;48.728;9.154;2023-01-23T09:16:12;97852.81;;;0.89;91.61
14689;BME280;7432;48.728;9.154;2023-01-23T09:18:38;97852.13;;;1.04;89.69
14689;BME280;7432;48.728;9.154;2023-01-23T09:21:06;97853.16;;;1.00;89.95
14689;BME280;7432;48.728;9.154;2023-01-23T09:23:33;97860.03;;;0.98;88.83
14689;BME280;7432;48.728;9.154;2023-01-23T09:26:03;97856.94;;;0.92;88.42
14689;BME280;7432;48.728;9.154;2023-01-23T09:28:30;97861.25;;;0.90;89.70
14689;BME280;7432;48.728;9.154;2023-01-23T09:31:01;97860.41;;;0.71;88.67
14689;BME280;7432;48.728;9.154;2023-01-23T09:33:27;97866.91;;;0.76;89.90
14689;BME280;7432;48.728;9.154;2023-01-23T09:35:53;97860.28;;;0.74;89.88
14689;BME280;7432;48.728;9.154;2023-01-23T09:38:20;97872.75;;;0.78;88.64
14689;BME280;7432;48.728;9.154;2023-01-23T09:40:49;97872.53;;;0.83;89.29
14689;BME280;7432;48.728;9.154;2023-01-23T09:43:21;97867.38;;;0.66;88.37
14689;BME280;7432;48.728;9.154;2023-01-23T09:45:56;97848.94;;;0.42;88.40
14689;BME280;7432;48.728;9.154;2023-01-23T09:48:27;97861.00;;;0.37;88.28
14689;BME280;7432;48.728;9.154;2023-01-23T09:51:00;97869.28;;;0.20;87.34
14689;BME280;7432;48.728;9.154;2023-01-23T09:53:35;97878.91;;;0.12;88.49
14689;BME280;7432;48.728;9.154;2023-01-23T09:56:05;97869.41;;;0.17;88.50
14689;BME280;7432;48.728;9.154;2023-01-23T09:58:42;97876.13;;;0.18;88.91
14689;BME280;7432;48.728;9.154;2023-01-23T10:01:12;97873.34;;;0.24;89.07
14689;BME280;7432;48.728;9.154;2023-01-23T10:03:40;97875.06;;;0.24;88.76
14689;BME280;7432;48.728;9.154;2023-01-23T10:06:19;97875.94;;;0.23;89.28
14689;BME280;7432;48.728;9.154;2023-01-23T10:11:43;97877.84;;;0.38;88.46
14689;BME280;7432;48.728;9.154;2023-01-23T10:14:37;97872.84;;;0.36;88.63
14689;BME280;7432;48.728;9.154;2023-01-23T10:17:13;97867.81;;;0.55;87.09
14689;BME280;7432;48.728;9.154;2023-01-23T10:20:01;97875.31;;;0.77;85.72
14689;BME280;7432;48.728;9.154;2023-01-23T10:22:38;97875.41;;;0.75;85.67
14689;BME280;7432;48.728;9.154;2023-01-23T10:25:11;97871.88;;;0.79;84.83
14689;BME280;7432;48.728;9.154;2023-01-23T10:27:41;97870.25;;;0.77;85.31
14689;BME280;7432;48.728;9.154;2023-01-23T10:30:19;97865.63;;;1.05;84.21
14689;BME280;7432;48.728;9.154;2023-01-23T10:32:50;97863.44;;;1.16;84.16
14689;BME280;7432;48.728;9.154;2023-01-23T10:35:21;97860.28;;;1.30;83.52
14689;BME280;7432;48.728;9.154;2023-01-23T10:37:52;97862.25;;;1.23;83.01
14689;BME280;7432;48.728;9.154;2023-01-23T10:40:22;97858.16;;;1.20;83.10
14689;BME280;7432;48.728;9.154;2023-01-23T10:43:03;97866.81;;;0.98;83.50
14689;BME280;7432;48.728;9.154;2023-01-23T10:45:30;97870.00;;;0.83;85.25
14689;BME280;7432;48.728;9.154;2023-01-23T10:47:56;97856.66;;;0.79;84.89
14689;BME280;7432;48.728;9.154;2023-01-23T10:50:34;97848.69;;;0.87;85.79
14689;BME280;7432;48.728;9.154;2023-01-23T10:53:07;97846.44;;;0.81;85.30
14689;BME280;7432;48.728;9.154;2023-01-23T10:55:44;97852.03;;;0.69;86.37
14689;BME280;7432;48.728;9.154;2023-01-23T10:58:28;97841.84;;;0.89;85.91
14689;BME280;7432;48.728;9.154;2023-01-23T11:00:58;97839.53;;;0.84;85.71
14689;BME280;7432;48.728;9.154;2023-01-23T11:03:30;97840.97;;;0.90;85.33
14689;BME280;7432;48.728;9.154;2023-01-23T11:06:02;97837.59;;;1.08;85.45
14689;BME280;7432;48.728;9.154;2023-01-23T11:08:31;97833.13;;;1.32;85.33
14689;BME280;7432;48.728;9.154;2023-01-23T11:11:20;97833.34;;;1.27;84.72
14689;BME280;7432;48.728;9.154;2023-01-23T11:13:48;97840.41;;;1.39;84.01
14689;BME280;7432;48.728;9.154;2023-01-23T11:16:16;97827.31;;;1.30;84.03
14689;BME280;7432;48.728;9.154;2023-01-23T11:18:48;97810.09;;;1.36;84.75
14689;BME280;7432;48.728;9.154;2023-01-23T11:21:22;97823.09;;;1.47;85.01
14689;BME280;7432;48.728;9.154;2023-01-23T11:24:07;97810.78;;;1.57;83.12
14689;BME280;7432;48.728;9.154;2023-01-23T11:26:35;97812.78;;;1.50;83.77
14689;BME280;7432;48.728;9.154;2023-01-23T11:29:18;97807.56;;;1.36;85.44
14689;BME280;7432;48.728;9.154;2023-01-23T11:31:45;97815.59;;;1.27;85.14
14689;BME280;7432;48.728;9.154;2023-01-23T11:34:12;97813.53;;;1.16;85.65
14689;BME280;7432;48.728;9.154;2023-01-23T11:36:48;97803.59;;;0.93;86.61
14689;BME280;7432;48.728;9.154;2023-01-23T11:39:31;97795.84;;;1.15;85.79
14689;BME280;7432;48.728;9.154;2023-01-23T11:42:01;97800.63;;;1.21;85.30
14689;BME280;7432;48.728;9.154;2023-01-23T11:44:28;97802.34;;;1.39;84.49
14689;BME280;7432;48.728;9.154;2023-01-23T11:47:11;97803.38;;;1.35;84.65
14689;BME280;7432;48.728;9.154;2023-01-23T11:49:52;97802.97;;;1.26;85.46
14689;BME280;7432;48.728;9.154;2023-01-23T11:52:35;97800.81;;;1.35;84.78
14689;BME280;7432;48.728;9.154;2023-01-23T11:55:33;97813.28;;;1.40;85.49
14689;BME280;7432;48.728;9.154;2023-01-23T11:58:13;97807.84;;;1.11;85.34
14689;BME280;7432;48.728;9.154;2023-01-23T12:00:44;97794.84;;;1.00;85.98
14689;BME280;7432;48.728;9.154;2023-01-23T12:06:22;97794.91;;;0.99;86.74
14689;BME280;7432;48.728;9.154;2023-01-23T12:08:56;97797.78;;;1.10;87.08
14689;BME280;7432;48.728;9.154;2023-01-23T12:11:31;97801.47;;;1.22;86.62
14689;BME280;7432;48.728;9.154;2023-01-23T12:14:11;97800.59;;;1.23;85.91
14689;BME280;7432;48.728;9.154;2023-01-23T12:16:52;97792.47;;;1.33;85.78
14689;BME280;7432;48.728;9.154;2023-01-23T12:19:35;97787.91;;;1.23;86.21
14689;BME280;7432;48.728;9.154;2023-01-23T12:22:09;97781.06;;;1.42;85.06
14689;BME280;7432;48.728;9.154;2023-01-23T12:24:52;97778.59;;;1.40;85.36
14689;BME280;7432;48.728;9.154;2023-01-23T12:27:27;97764.63;;;1.32;84.47
14689;BME280;7432;48.728;9.154;2023-01-23T12:30:21;97767.97;;;1.32;85.42
14689;BME280;7432;48.728;9.154;2023-01-23T12:33:02;97754.84;;;1.24;85.68
14689;BME280;7432;48.728;9.154;2023-01-23T12:35:43;97752.34;;;1.58;84.94
14689;BME280;7432;48.728;9.154;2023-01-23T12:38:23;97748.78;;;1.79;82.84
14689;BME280;7432;48.728;9.154;2023-01-23T12:41:00;97749.66;;;1.78;82.99
14689;BME280;7432;48.728;9.154;2023-01-23T12:43:33;97743.06;;;1.92;83.44
14689;BME280;7432;48.728;9.154;2023-01-23T12:46:04;97741.34;;;1.92;82.93
14689;BME280;7432;48.728;9.154;2023-01-23T12:48:37;97738.22;;;1.70;83.80
14689;BME280;7432;48.728;9.154;2023-01-23T12:51:07;97737.69;;;1.80;83.40
14689;BME280;7432;48.728;9.154;2023-01-23T12:53:37;97738.91;;;1.91;84.77
14689;BME280;7432;48.728;9.154;2023-01-23T12:56:09;97736.28;;;1.75;84.14
14689;BME280;7432;48.728;9.154;2023-01-23T12:58:41;97728.84;;;1.55;85.39
14689;BME280;7432;48.728;9.154;2023-01-23T13:01:19;97732.63;;;1.46;85.64
14689;BME280;7432;48.728;9.154;2023-01-23T13:03:59;97728.88;;;1.53;85.39
14689;BME280;7432;48.728;9.154;2023-01-23T13:09:34;97713.16;;;1.64;85.72
14689;BME280;7432;48.728;9.154;2023-01-23T13:12:11;97723.66;;;1.56;85.19
14689;BME280;7432;48.728;9.154;2023-01-23T13:14:43;97717.78;;;1.56;86.16
14689;BME280;7432;48.728;9.154;2023-01-23T13:17:28;97721.66;;;1.63;85.86
14689;BME280;7432;48.728;9.154;2023-01-23T13:20:17;97729.56;;;1.57;86.39
14689;BME280;7432;48.728;9.154;2023-01-23T13:23:23;97729.00;;;1.69;86.24
14689;BME280;7432;48.728;9.154;2023-01-23T13:26:22;97733.25;;;1.68;86.03
14689;BME280;7432;48.728;9.154;2023-01-23T13:28:55;97731.59;;;1.67;86.95
14689;BME280;7432;48.728;9.154;2023-01-23T13:31:34;97740.00;;;1.51;87.11
14689;BME280;7432;48.728;9.154;2023-01-23T13:34:16;97737.19;;;1.57;87.18
14689;BME280;7432;48.728;9.154;2023-01-23T13:36:53;97745.78;;;1.71;86.62
14689;BME280;7432;48.728;9.154;2023-01-23T13:39:22;97737.63;;;1.65;87.59